Wetterstation Vettwei-Soller: Standort 50 43' 54" Nord - 6 33' 24" Ost
Wetterdaten: aktuell Dienstag, 26.09.2023 04:00
Datum Zeit Temp. A. Temp. A. min Temp. A. max Feuchte A. Luftdruck Regen Wind Richtung Richtung Sonnenschein Zeit Regen ET UV Solar Taupunkt Windchill Windben
26.09.2023 04:00 12,4 C 12,4 C 12,5 C 81 % 1022,7 hPa 0,0 l/m 2,4 km/h (1 Bft) W-SW 240 0 min 0 min 0,000 mm 0,0 UV-I 0 W/m 9,2 C 12,4 C 6,4 km/h (2 Bft)
26.09.2023 03:45 12,4 C 12,2 C 12,4 C 81 % 1022,8 hPa 0,0 l/m 2,8 km/h (1 Bft) W-SW 239 0 min 0 min 0,000 mm 0,0 UV-I 0 W/m 9,2 C 12,4 C 8,0 km/h (2 Bft)
26.09.2023 03:30 12,2 C 12,0 C 12,2 C 83 % 1022,9 hPa 0,0 l/m 0,7 km/h (0 Bft) SW 224 0 min 0 min 0,000 mm 0,0 UV-I 0 W/m 9,4 C 12,2 C 6,4 km/h (2 Bft)
26.09.2023 03:15 12,1 C 12,1 C 12,8 C 82 % 1023,0 hPa 0,0 l/m 0,0 km/h (0 Bft) S-SW 196 0 min 0 min 0,000 mm 0,0 UV-I 0 W/m 9,1 C 12,1 C 0,0 km/h (0 Bft)
26.09.2023 03:00 12,8 C 11,9 C 12,8 C 81 % 1023,1 hPa 0,0 l/m 0,0 km/h (0 Bft) S-SW 196 0 min 0 min 0,025 mm 0,0 UV-I 0 W/m 9,6 C 12,8 C 0,0 km/h (0 Bft)
26.09.2023 02:45 12,0 C 12,0 C 13,2 C 82 % 1023,2 hPa 0,0 l/m 0,0 km/h (0 Bft) S-SW 196 0 min 0 min 0,000 mm 0,0 UV-I 0 W/m 9,0 C 12,0 C 0,0 km/h (0 Bft)
26.09.2023 02:30 13,2 C 13,1 C 13,6 C 78 % 1023,1 hPa 0,0 l/m 3,3 km/h (1 Bft) S-SW 196 0 min 0 min 0,000 mm 0,0 UV-I 0 W/m 9,4 C 13,2 C 8,0 km/h (2 Bft)
26.09.2023 02:15 13,1 C 12,7 C 13,7 C 81 % 1023,1 hPa 0,0 l/m 1,1 km/h (1 Bft) S-SW 196 0 min 0 min 0,000 mm 0,0 UV-I 0 W/m 9,9 C 13,1 C 6,4 km/h (2 Bft)
26.09.2023 02:00 13,6 C 13,5 C 13,9 C 78 % 1023,0 hPa 0,0 l/m 2,1 km/h (1 Bft) S-SW 200 0 min 0 min 0,026 mm 0,0 UV-I 0 W/m 9,8 C 13,6 C 6,4 km/h (2 Bft)
26.09.2023 01:45 13,9 C 13,9 C 14,2 C 77 % 1023,0 hPa 0,0 l/m 3,7 km/h (1 Bft) S-SW 200 0 min 0 min 0,000 mm 0,0 UV-I 0 W/m 9,9 C 13,9 C 8,0 km/h (2 Bft)
26.09.2023 01:30 14,2 C 14,2 C 14,4 C 76 % 1023,2 hPa 0,0 l/m 3,3 km/h (1 Bft) S-SW 210 0 min 0 min 0,000 mm 0,0 UV-I 0 W/m 10,0 C 14,2 C 8,0 km/h (2 Bft)
26.09.2023 01:15 14,4 C 14,4 C 14,6 C 74 % 1023,1 hPa 0,0 l/m 4,0 km/h (1 Bft) S-SW 201 0 min 0 min 0,000 mm 0,0 UV-I 0 W/m 9,8 C 14,4 C 9,7 km/h (2 Bft)
26.09.2023 01:00 14,6 C 14,3 C 14,6 C 74 % 1023,1 hPa 0,0 l/m 4,0 km/h (1 Bft) S-SW 202 0 min 0 min 0,025 mm 0,0 UV-I 0 W/m 10,0 C 14,6 C 9,7 km/h (2 Bft)
26.09.2023 00:45 14,3 C 13,5 C 14,3 C 75 % 1023,2 hPa 0,0 l/m 3,6 km/h (1 Bft) S-SW 198 0 min 0 min 0,000 mm 0,0 UV-I 0 W/m 9,9 C 14,3 C 8,0 km/h (2 Bft)
26.09.2023 00:30 13,8 C 13,8 C 14,6 C 76 % 1023,3 hPa 0,0 l/m 1,3 km/h (1 Bft) S-SW 194 0 min 0 min 0,000 mm 0,0 UV-I 0 W/m 9,6 C 13,8 C 6,4 km/h (2 Bft)
26.09.2023 00:15 14,6 C 14,2 C 14,7 C 74 % 1023,3 hPa 0,0 l/m 4,5 km/h (1 Bft) S-SW 198 0 min 0 min 0,000 mm 0,0 UV-I 0 W/m 10,0 C 14,6 C 8,0 km/h (2 Bft)
26.09.2023 00:00 14,2 C 13,5 C 14,2 C 77 % 1023,3 hPa 0,0 l/m 2,9 km/h (1 Bft) SW 214 0 min 0 min 0,000 mm 0,0 UV-I 0 W/m 10,2 C 14,2 C 8,0 km/h (2 Bft)
25.09.2023 23:45 13,5 C 12,6 C 13,5 C 80 % 1023,4 hPa 0,0 l/m 0,2 km/h (0 Bft) S-SW 212 0 min 0 min 0,000 mm 0,0 UV-I 0 W/m 10,1 C 13,5 C 3,2 km/h (1 Bft)
25.09.2023 23:30 12,7 C 12,7 C 13,0 C 82 % 1023,6 hPa 0,0 l/m 0,0 km/h (0 Bft) S-SW 212 0 min 0 min 0,000 mm 0,0 UV-I 0 W/m 9,7 C 12,7 C 0,0 km/h (0 Bft)
25.09.2023 23:15 13,0 C 12,9 C 14,1 C 81 % 1023,7 hPa 0,0 l/m 0,0 km/h (0 Bft) S-SW 212 0 min 0 min 0,000 mm 0,0 UV-I 0 W/m 9,8 C 13,0 C 0,0 km/h (0 Bft)
25.09.2023 23:00 14,1 C 14,1 C 14,4 C 78 % 1023,6 hPa 0,0 l/m 0,4 km/h (0 Bft) S-SW 212 0 min 0 min 0,025 mm 0,0 UV-I 0 W/m 10,3 C 14,1 C 3,2 km/h (1 Bft)
25.09.2023 22:45 14,4 C 14,3 C 14,7 C 77 % 1023,6 hPa 0,0 l/m 1,1 km/h (1 Bft) S-SW 212 0 min 0 min 0,000 mm 0,0 UV-I 0 W/m 10,4 C 14,4 C 6,4 km/h (2 Bft)
25.09.2023 22:30 14,5 C 14,5 C 14,7 C 77 % 1023,6 hPa 0,0 l/m 1,5 km/h (1 Bft) S-SW 209 0 min 0 min 0,000 mm 0,0 UV-I 0 W/m 10,5 C 14,5 C 4,8 km/h (1 Bft)
25.09.2023 22:15 14,7 C 14,7 C 15,5 C 77 % 1023,6 hPa 0,0 l/m 1,5 km/h (1 Bft) S-SW 209 0 min 0 min 0,000 mm 0,0 UV-I 0 W/m 10,7 C 14,7 C 4,8 km/h (1 Bft)
25.09.2023 22:00 15,5 C 13,8 C 15,6 C 75 % 1023,7 hPa 0,0 l/m 3,0 km/h (1 Bft) S-SW 206 0 min 0 min 0,026 mm 0,0 UV-I 0 W/m 11,1 C 15,5 C 8,0 km/h (2 Bft)
25.09.2023 21:45 13,8 C 13,8 C 13,9 C 80 % 1023,7 hPa 0,0 l/m 0,0 km/h (0 Bft) W-SW 243 0 min 0 min 0,000 mm 0,0 UV-I 0 W/m 10,4 C 13,8 C 0,0 km/h (0 Bft)
25.09.2023 21:30 13,9 C 13,9 C 14,6 C 80 % 1023,6 hPa 0,0 l/m 0,0 km/h (0 Bft) W-SW 244 0 min 0 min 0,000 mm 0,0 UV-I 0 W/m 10,5 C 13,9 C 0,0 km/h (0 Bft)
25.09.2023 21:15 14,6 C 14,6 C 15,4 C 77 % 1023,6 hPa 0,0 l/m 0,0 km/h (0 Bft) W-SW 244 0 min 0 min 0,000 mm 0,0 UV-I 0 W/m 10,6 C 14,6 C 0,0 km/h (0 Bft)
25.09.2023 21:00 15,4 C 15,4 C 15,7 C 74 % 1023,5 hPa 0,0 l/m 0,0 km/h (0 Bft) W-SW 244 0 min 0 min 0,025 mm 0,0 UV-I 0 W/m 10,8 C 15,4 C 1,6 km/h (1 Bft)
25.09.2023 20:45 15,7 C 15,7 C 15,9 C 74 % 1023,3 hPa 0,0 l/m 0,7 km/h (0 Bft) W-SW 244 0 min 0 min 0,000 mm 0,0 UV-I 0 W/m 11,1 C 15,7 C 3,2 km/h (1 Bft)
25.09.2023 20:30 15,9 C 15,9 C 16,2 C 74 % 1023,2 hPa 0,0 l/m 0,9 km/h (0 Bft) W-SW 245 0 min 0 min 0,000 mm 0,0 UV-I 0 W/m 11,3 C 15,9 C 3,2 km/h (1 Bft)
25.09.2023 20:15 16,2 C 16,1 C 16,3 C 73 % 1023,2 hPa 0,0 l/m 3,1 km/h (1 Bft) W-SW 248 0 min 0 min 0,026 mm 0,0 UV-I 0 W/m 11,4 C 16,2 C 8,0 km/h (2 Bft)
25.09.2023 20:00 16,3 C 16,2 C 17,0 C 73 % 1023,0 hPa 0,0 l/m 0,9 km/h (0 Bft) NW 315 0 min 0 min 0,000 mm 0,0 UV-I 0 W/m 11,4 C 16,3 C 4,8 km/h (1 Bft)
25.09.2023 19:45 16,9 C 16,9 C 18,3 C 71 % 1022,9 hPa 0,0 l/m 1,2 km/h (1 Bft) NW 319 0 min 0 min 0,000 mm 0,0 UV-I 0 W/m 11,6 C 16,9 C 4,8 km/h (1 Bft)
25.09.2023 19:30 18,2 C 18,2 C 18,8 C 67 % 1023,0 hPa 0,0 l/m 0,8 km/h (0 Bft) N-NW 342 0 min 0 min 0,000 mm 0,0 UV-I 0 W/m 12,0 C 18,2 C 4,8 km/h (1 Bft)
25.09.2023 19:15 18,8 C 18,8 C 19,6 C 65 % 1022,9 hPa 0,0 l/m 1,2 km/h (1 Bft) N-NW 342 0 min 0 min 0,000 mm 0,0 UV-I 7 W/m 12,1 C 18,8 C 4,8 km/h (1 Bft)
25.09.2023 19:00 19,6 C 19,6 C 20,5 C 63 % 1022,9 hPa 0,0 l/m 1,8 km/h (1 Bft) N-NO 13 0 min 0 min 0,050 mm 0,0 UV-I 12 W/m 12,4 C 19,6 C 6,4 km/h (2 Bft)
25.09.2023 18:45 20,5 C 20,5 C 20,9 C 58 % 1022,9 hPa 0,0 l/m 3,8 km/h (1 Bft) NO 45 0 min 0 min 0,000 mm 0,0 UV-I 18 W/m 11,9 C 20,5 C 9,7 km/h (2 Bft)
25.09.2023 18:30 20,9 C 20,9 C 21,3 C 56 % 1023,0 hPa 0,0 l/m 4,7 km/h (1 Bft) O-NO 59 0 min 0 min 0,000 mm 0,0 UV-I 21 W/m 11,8 C 20,9 C 9,7 km/h (2 Bft)
25.09.2023 18:15 21,3 C 21,3 C 21,8 C 54 % 1023,0 hPa 0,0 l/m 5,4 km/h (1 Bft) NO 37 0 min 0 min 0,000 mm 0,0 UV-I 49 W/m 11,6 C 21,3 C 14,5 km/h (3 Bft)
25.09.2023 18:00 21,8 C 21,8 C 22,4 C 53 % 1023,0 hPa 0,0 l/m 5,7 km/h (1 Bft) N-NO 29 15 min 0 min 0,178 mm 0,0 UV-I 156 W/m 11,8 C 21,8 C 12,9 km/h (3 Bft)
25.09.2023 17:45 22,4 C 22,4 C 22,6 C 52 % 1022,9 hPa 0,0 l/m 4,8 km/h (1 Bft) NO 46 15 min 0 min 0,000 mm 0,0 UV-I 216 W/m 12,1 C 22,4 C 14,5 km/h (3 Bft)
25.09.2023 17:30 22,4 C 22,3 C 22,7 C 51 % 1022,8 hPa 0,0 l/m 5,0 km/h (1 Bft) O 90 15 min 0 min 0,000 mm 0,6 UV-I 250 W/m 11,8 C 22,4 C 12,9 km/h (3 Bft)
25.09.2023 17:15 22,7 C 22,3 C 22,7 C 51 % 1022,7 hPa 0,0 l/m 4,6 km/h (1 Bft) O-SO 123 15 min 0 min 0,000 mm 0,8 UV-I 267 W/m 12,0 C 22,7 C 14,5 km/h (3 Bft)
25.09.2023 17:00 22,3 C 22,2 C 23,0 C 52 % 1022,7 hPa 0,0 l/m 6,3 km/h (2 Bft) SO 126 15 min 0 min 0,254 mm 0,9 UV-I 251 W/m 12,0 C 22,3 C 14,5 km/h (3 Bft)
25.09.2023 16:45 23,0 C 22,7 C 23,1 C 48 % 1022,8 hPa 0,0 l/m 6,1 km/h (2 Bft) O-NO 57 15 min 0 min 0,000 mm 1,2 UV-I 316 W/m 11,4 C 23,0 C 14,5 km/h (3 Bft)
25.09.2023 16:30 22,7 C 22,7 C 23,7 C 49 % 1022,7 hPa 0,0 l/m 4,3 km/h (1 Bft) O 91 15 min 0 min 0,000 mm 1,3 UV-I 336 W/m 11,4 C 22,7 C 12,9 km/h (3 Bft)
25.09.2023 16:15 23,7 C 23,2 C 23,7 C 43 % 1022,8 hPa 0,0 l/m 3,0 km/h (1 Bft) O 94 15 min 0 min 0,000 mm 1,7 UV-I 404 W/m 10,4 C 23,7 C 11,3 km/h (2 Bft)
25.09.2023 16:00 23,3 C 23,1 C 23,4 C 39 % 1022,8 hPa 0,0 l/m 3,1 km/h (1 Bft) O 101 15 min 0 min 0,254 mm 2,0 UV-I 464 W/m 8,6 C 23,3 C 9,7 km/h (2 Bft)
25.09.2023 15:45 23,1 C 22,8 C 23,2 C 39 % 1022,9 hPa 0,0 l/m 2,8 km/h (1 Bft) O-SO 116 15 min 0 min 0,000 mm 2,2 UV-I 471 W/m 8,4 C 23,1 C 11,3 km/h (2 Bft)
25.09.2023 15:30 22,8 C 22,5 C 22,8 C 44 % 1022,8 hPa 0,0 l/m 2,0 km/h (1 Bft) O-NO 65 15 min 0 min 0,000 mm 2,7 UV-I 309 W/m 9,9 C 22,8 C 6,4 km/h (2 Bft)
25.09.2023 15:15 22,5 C 22,4 C 22,7 C 44 % 1022,8 hPa 0,0 l/m 2,1 km/h (1 Bft) O-SO 109 0 min 0 min 0,000 mm 2,1 UV-I 281 W/m 9,6 C 22,5 C 9,7 km/h (2 Bft)
25.09.2023 15:00 22,6 C 22,4 C 23,1 C 41 % 1022,7 hPa 0,0 l/m 3,6 km/h (1 Bft) O-NO 66 0 min 0 min 0,333 mm 2,3 UV-I 304 W/m 8,7 C 22,6 C 12,9 km/h (3 Bft)
25.09.2023 14:45 23,0 C 22,7 C 23,1 C 42 % 1022,8 hPa 0,0 l/m 3,9 km/h (1 Bft) O 89 15 min 0 min 0,000 mm 3,1 UV-I 547 W/m 9,4 C 23,0 C 11,3 km/h (2 Bft)
25.09.2023 14:30 22,8 C 22,4 C 22,8 C 43 % 1022,8 hPa 0,0 l/m 3,7 km/h (1 Bft) O 95 15 min 0 min 0,000 mm 3,3 UV-I 557 W/m 9,6 C 22,8 C 12,9 km/h (3 Bft)
25.09.2023 14:15 22,7 C 21,8 C 22,7 C 44 % 1022,9 hPa 0,0 l/m 6,1 km/h (2 Bft) O 79 15 min 0 min 0,000 mm 3,0 UV-I 573 W/m 9,8 C 22,7 C 12,9 km/h (3 Bft)
25.09.2023 14:00 22,3 C 21,8 C 22,3 C 43 % 1022,8 hPa 0,0 l/m 3,2 km/h (1 Bft) O-SO 112 30 min 0 min 0,356 mm 3,6 UV-I 592 W/m 9,1 C 22,3 C 11,3 km/h (2 Bft)
25.09.2023 13:30 21,9 C 21,2 C 22,1 C 43 % 1022,9 hPa 0,0 l/m 4,8 km/h (1 Bft) O-SO 112 30 min 0 min 0,000 mm 3,6 UV-I 601 W/m 8,7 C 21,9 C 14,5 km/h (3 Bft)
25.09.2023 13:00 21,2 C 20,6 C 21,5 C 50 % 1023,1 hPa 0,0 l/m 3,2 km/h (1 Bft) O-SO 112 30 min 0 min 0,330 mm 3,5 UV-I 592 W/m 10,4 C 21,2 C 11,3 km/h (2 Bft)
25.09.2023 12:30 20,6 C 19,8 C 21,0 C 53 % 1023,4 hPa 0,0 l/m 3,2 km/h (1 Bft) O-SO 112 30 min 0 min 0,000 mm 3,3 UV-I 578 W/m 10,7 C 20,6 C 11,3 km/h (2 Bft)
25.09.2023 12:00 20,1 C 19,1 C 20,2 C 55 % 1023,7 hPa 0,0 l/m 1,6 km/h (1 Bft) O-SO 112 30 min 0 min 0,279 mm 2,9 UV-I 557 W/m 10,8 C 20,1 C 11,3 km/h (2 Bft)
25.09.2023 11:30 19,1 C 18,1 C 19,1 C 59 % 1023,7 hPa 0,0 l/m 3,2 km/h (1 Bft) O-SO 112 30 min 0 min 0,000 mm 2,5 UV-I 563 W/m 10,9 C 19,1 C 11,3 km/h (2 Bft)
25.09.2023 11:00 18,1 C 16,3 C 18,1 C 65 % 1023,9 hPa 0,0 l/m 1,6 km/h (1 Bft) O-SO 112 30 min 0 min 0,203 mm 2,0 UV-I 432 W/m 11,4 C 18,1 C 9,7 km/h (2 Bft)
25.09.2023 10:30 16,4 C 14,7 C 16,4 C 67 % 1023,9 hPa 0,0 l/m 1,6 km/h (1 Bft) O-SO 112 30 min 0 min 0,000 mm 1,6 UV-I 459 W/m 10,3 C 16,4 C 8,0 km/h (2 Bft)
25.09.2023 10:00 14,7 C 13,3 C 14,7 C 73 % 1023,9 hPa 0,0 l/m 1,6 km/h (1 Bft) O-SO 112 30 min 0 min 0,127 mm 1,0 UV-I 325 W/m 9,9 C 14,7 C 12,9 km/h (3 Bft)
25.09.2023 09:30 13,3 C 12,6 C 13,3 C 74 % 1023,9 hPa 0,0 l/m 3,2 km/h (1 Bft) O-SO 112 30 min 0 min 0,000 mm 0,7 UV-I 269 W/m 8,8 C 13,3 C 9,7 km/h (2 Bft)
25.09.2023 09:00 12,6 C 10,1 C 12,6 C 77 % 1023,9 hPa 0,0 l/m 1,6 km/h (1 Bft) SO 135 30 min 0 min 0,051 mm 0,0 UV-I 241 W/m 8,7 C 12,6 C 6,4 km/h (2 Bft)
25.09.2023 08:30 10,1 C 9,4 C 10,3 C 82 % 1023,9 hPa 0,0 l/m 0,0 km/h (0 Bft) SO 135 30 min 0 min 0,000 mm 0,0 UV-I 135 W/m 7,2 C 10,1 C 4,8 km/h (1 Bft)
25.09.2023 08:00 9,4 C 9,1 C 10,3 C 82 % 1023,7 hPa 0,0 l/m 0,0 km/h (0 Bft) SO 135 0 min 0 min 0,000 mm 0,0 UV-I 35 W/m 6,5 C 9,4 C 4,8 km/h (1 Bft)
25.09.2023 07:30 9,9 C 7,8 C 9,9 C 80 % 1023,7 hPa 0,0 l/m 0,0 km/h (0 Bft) SO 135 0 min 0 min 0,000 mm 0,0 UV-I 5 W/m 6,6 C 9,9 C 6,4 km/h (2 Bft)
25.09.2023 07:00 7,8 C 7,7 C 7,9 C 86 % 1023,9 hPa 0,0 l/m 0,0 km/h (0 Bft) O-SO 112 0 min 0 min 0,000 mm 0,0 UV-I 0 W/m 5,6 C 7,8 C 4,8 km/h (1 Bft)
25.09.2023 06:30 7,7 C 7,5 C 8,2 C 87 % 1023,9 hPa 0,0 l/m 1,6 km/h (1 Bft) O-SO 112 0 min 0 min 0,000 mm 0,0 UV-I 0 W/m 5,7 C 7,7 C 4,8 km/h (1 Bft)
25.09.2023 06:00 8,2 C 8,2 C 8,8 C 85 % 1023,8 hPa 0,0 l/m 0,0 km/h (0 Bft) O-SO 112 0 min 0 min 0,000 mm 0,0 UV-I 0 W/m 5,8 C 8,2 C 4,8 km/h (1 Bft)
25.09.2023 05:30 8,8 C 8,7 C 9,7 C 84 % 1023,6 hPa 0,0 l/m 0,0 km/h (0 Bft) O-SO 112 0 min 0 min 0,000 mm 0,0 UV-I 0 W/m 6,2 C 8,8 C 3,2 km/h (1 Bft)
25.09.2023 05:00 9,7 C 9,7 C 10,8 C 81 % 1023,4 hPa 0,0 l/m 0,0 km/h (0 Bft) O-SO 112 0 min 0 min 0,025 mm 0,0 UV-I 0 W/m 6,6 C 9,7 C 3,2 km/h (1 Bft)
_ Min-Zeit 06:30 06:30 07:00 15:45 15:00 - 05:00 - - - - - - - 07:00 06:30 21:15
Minimum _ 7,5 C 7,5 C 7,9 C 39 % 1022,7 hPa - 0,0 km/h (0 Bft) - - - - - - - 5,6 C 7,7 C 0,0 km/h (0 Bft)
_ Max-Zeit 16:15 16:15 16:15 06:30 06:30 05:00 17:00 - - 08:30 05:00 14:00 13:30 13:30 19:00 16:15 13:30
Maximum _ 23,7 C 23,2 C 23,7 C 87 % 1023,9 hPa 0,0 l/m 6,3 km/h
SO (2 Bft)
- - 30 min 0 min 0,356 mm 3,6 UV-I 601 W/m 12,4 C 23,7 C 14,5 km/h
O (3 Bft)
Durchschnitt _ 15,6 C 15,2 C 16,0 C 69 % 1023,3 hPa #0,0 l/m 2,0 km/h (1 Bft) O-SO - #0 min. #0 min. #0,076 mm 0,0 UV-I 0 W/m 9,4 C 15,6 C 7,4 km/h (2 Bft)